Time;durP1;ratioP1;P1;durP2;ratioP2;P2;SDS_P1;SDS_P2;PMS_P1;PMS_P2;Temp;Humidity;BMP_temperature;BMP_pressure;BME280_temperature;BME280_humidity;BME280_pressure;Samples;Min_cycle;Max_cycle;Signal;HPM_P1;HPM_P2
2022/09/15 00:01:51;;;;;;;;;;;;;;;15.60;100.00;100504.91;5024426;28;20321;-79
2022/09/15 00:04:17;;;;;;;;;;;;;;;15.66;100.00;100498.59;5024004;28;19987;-78
2022/09/15 00:06:48;;;;;;;;;;;;;;;15.68;100.00;100496.50;5023326;28;20427;-81
2022/09/15 00:09:15;;;;;;;;;;;;;;;15.54;100.00;100488.75;5022060;28;19937;-80
2022/09/15 00:11:41;;;;;;;;;;;;;;;15.45;100.00;100492.09;5019763;28;19933;-78
2022/09/15 00:14:16;;;;;;;;;;;;;;;15.66;100.00;100496.72;5025428;28;19925;-76
2022/09/15 00:16:43;;;;;;;;;;;;;;;15.55;100.00;100494.94;5024949;28;19925;-77
2022/09/15 00:19:12;;;;;;;;;;;;;;;15.70;100.00;100486.34;5016227;28;19929;-81
2022/09/15 00:21:46;;;;;;;;;;;;;;;15.75;100.00;100486.44;5019265;28;19929;-81
2022/09/15 00:24:16;;;;;;;;;;;;;;;15.68;100.00;100486.59;5022440;28;19991;-81
2022/09/15 00:26:45;;;;;;;;;;;;;;;15.53;100.00;100481.81;5016324;28;19932;-81
2022/09/15 00:29:13;;;;;;;;;;;;;;;15.55;100.00;100478.88;5022222;28;20373;-80
2022/09/15 00:31:45;;;;;;;;;;;;;;;15.73;100.00;100483.19;5018337;28;19983;-80
2022/09/15 00:36:57;;;;;;;;;;;;;;;15.34;100.00;100481.25;5021439;28;19925;-76
2022/09/15 00:39:26;;;;;;;;;;;;;;;15.47;100.00;100480.09;5027338;28;19933;-79
2022/09/15 00:41:55;;;;;;;;;;;;;;;15.47;100.00;100490.81;5020828;28;19925;-80
2022/09/15 00:44:40;;;;;;;;;;;;;;;15.56;100.00;100488.53;5027294;28;19925;-77
2022/09/15 00:47:08;;;;;;;;;;;;;;;15.48;100.00;100480.91;5021635;28;19959;-77
2022/09/15 00:49:37;;;;;;;;;;;;;;;15.34;100.00;100486.59;5028072;28;19925;-79
2022/09/15 00:52:06;;;;;;;;;;;;;;;15.48;100.00;100476.34;5028133;28;19929;-78
2022/09/15 00:54:39;;;;;;;;;;;;;;;15.51;100.00;100481.22;5027158;28;19925;-77
2022/09/15 00:57:11;;;;;;;;;;;;;;;14.99;100.00;100486.78;5026662;28;19925;-79
2022/09/15 00:59:39;;;;;;;;;;;;;;;15.45;100.00;100476.84;5026250;28;19929;-79
2022/09/15 01:02:10;;;;;;;;;;;;;;;15.61;100.00;100472.53;5034167;28;20336;-78
2022/09/15 01:04:44;;;;;;;;;;;;;;;15.22;100.00;100466.28;5022291;28;20332;-75
2022/09/15 01:07:20;;;;;;;;;;;;;;;15.03;100.00;100479.91;5016028;28;20012;-76
2022/09/15 01:09:50;;;;;;;;;;;;;;;15.33;100.00;100471.56;5025035;28;19932;-77
2022/09/15 01:12:22;;;;;;;;;;;;;;;15.31;100.00;100472.88;5027609;28;19925;-82
2022/09/15 01:14:50;;;;;;;;;;;;;;;15.30;100.00;100460.56;5026923;28;19928;-77
2022/09/15 01:17:35;;;;;;;;;;;;;;;15.35;100.00;100466.81;5026576;28;19925;-79
2022/09/15 01:20:30;;;;;;;;;;;;;;;15.10;100.00;100456.50;5027125;28;19991;-81
2022/09/15 01:23:05;;;;;;;;;;;;;;;15.06;100.00;100455.34;5020152;28;19929;-78
2022/09/15 01:25:47;;;;;;;;;;;;;;;15.16;100.00;100460.06;5026158;28;19944;-81
2022/09/15 01:28:29;;;;;;;;;;;;;;;15.12;100.00;100459.72;5028729;28;19925;-80
2022/09/15 01:31:03;;;;;;;;;;;;;;;15.04;100.00;100454.00;5023864;28;19930;-80
2022/09/15 01:33:35;;;;;;;;;;;;;;;15.06;100.00;100455.34;5030141;28;20325;-80
2022/09/15 01:36:12;;;;;;;;;;;;;;;15.21;100.00;100449.44;5025436;28;19940;-76
2022/09/15 01:38:46;;;;;;;;;;;;;;;15.03;100.00;100455.03;5020950;28;19925;-79
2022/09/15 01:41:16;;;;;;;;;;;;;;;15.40;100.00;100450.03;5025868;28;19983;-80
2022/09/15 01:43:50;;;;;;;;;;;;;;;15.17;100.00;100453.66;5025307;28;19929;-78
2022/09/15 01:46:22;;;;;;;;;;;;;;;15.25;100.00;100460.47;5016125;28;20024;-78
2022/09/15 01:48:57;;;;;;;;;;;;;;;15.27;100.00;100458.38;5030383;28;19925;-77
2022/09/15 01:51:25;;;;;;;;;;;;;;;15.36;100.00;100454.22;5015152;28;20433;-78
2022/09/15 01:53:56;;;;;;;;;;;;;;;15.42;100.00;100461.28;5022596;28;19933;-81
2022/09/15 01:56:26;;;;;;;;;;;;;;;15.40;100.00;100460.72;5023346;28;20301;-77
2022/09/15 01:58:56;;;;;;;;;;;;;;;15.38;100.00;100456.66;5029166;28;19925;-82
2022/09/15 02:01:28;;;;;;;;;;;;;;;15.10;100.00;100459.19;5136549;22;19951;-78
2022/09/15 02:03:59;;;;;;;;;;;;;;;15.27;100.00;100456.50;5034491;28;19925;-78
2022/09/15 02:06:35;;;;;;;;;;;;;;;15.01;100.00;100470.50;5034597;28;19928;-80
2022/09/15 02:09:07;;;;;;;;;;;;;;;14.90;100.00;100474.88;5034510;28;19987;-81
2022/09/15 02:11:39;;;;;;;;;;;;;;;15.26;100.00;100470.94;5019653;28;19925;-78
2022/09/15 02:14:17;;;;;;;;;;;;;;;15.22;100.00;100472.47;5033122;28;19957;-82
2022/09/15 02:17:04;;;;;;;;;;;;;;;;;;;;;
2022/09/15 02:19:40;;;;;;;;;;;;;;;15.24;100.00;100465.00;5034262;28;19925;-78
2022/09/15 02:22:12;;;;;;;;;;;;;;;15.42;100.00;100457.78;5033419;28;19928;-78
2022/09/15 02:24:43;;;;;;;;;;;;;;;15.26;100.00;100462.09;5034698;28;19925;-78
2022/09/15 02:27:12;;;;;;;;;;;;;;;15.45;100.00;100462.66;5034578;28;20324;-78
2022/09/15 02:29:42;;;;;;;;;;;;;;;15.44;100.00;100461.84;5034218;28;20011;-79
2022/09/15 02:32:16;;;;;;;;;;;;;;;15.49;100.00;100461.09;5034810;28;20004;-78
2022/09/15 02:34:50;;;;;;;;;;;;;;;15.42;100.00;100457.78;5034364;28;19956;-78
2022/09/15 02:37:18;;;;;;;;;;;;;;;15.18;100.00;100455.28;5034750;28;20006;-83
2022/09/15 02:39:46;;;;;;;;;;;;;;;15.45;100.00;100458.13;5034199;28;19925;-80
2022/09/15 02:42:17;;;;;;;;;;;;;;;15.46;100.00;100453.56;5034505;28;19925;-80
2022/09/15 02:45:03;;;;;;;;;;;;;;;15.36;100.00;100454.22;5026359;28;19940;-81
2022/09/15 02:47:38;;;;;;;;;;;;;;;15.29;100.00;100448.25;5027799;28;19952;-81
2022/09/15 02:50:07;;;;;;;;;;;;;;;15.30;100.00;100442.63;5016022;28;20020;-78
2022/09/15 02:52:40;;;;;;;;;;;;;;;15.35;100.00;100441.91;5015437;28;20282;-81
2022/09/15 02:55:08;;;;;;;;;;;;;;;15.53;100.00;100435.50;5033674;28;19936;-79
2022/09/15 02:57:37;;;;;;;;;;;;;;;15.58;100.00;100430.19;5034459;28;19937;-78
2022/09/15 03:00:18;;;;;;;;;;;;;;;15.54;100.00;100435.22;5033766;28;19925;-78
2022/09/15 03:02:48;;;;;;;;;;;;;;;15.58;100.00;100435.53;5026804;28;20277;-81
2022/09/15 03:05:15;;;;;;;;;;;;;;;15.44;100.00;100437.78;5022541;28;19932;-77
2022/09/15 03:07:42;;;;;;;;;;;;;;;15.78;100.00;100443.09;5011368;28;19926;-78
2022/09/15 03:10:10;;;;;;;;;;;;;;;15.77;100.00;100447.66;5020410;28;19925;-78
2022/09/15 03:12:37;;;;;;;;;;;;;;;15.93;100.00;100442.50;5032717;28;19933;-81
2022/09/15 03:15:04;;;;;;;;;;;;;;;16.09;100.00;100448.84;5002371;28;20354;-78
2022/09/15 03:17:33;;;;;;;;;;;;;;;15.98;100.00;100446.06;5009845;28;19930;-80
2022/09/15 03:20:01;;;;;;;;;;;;;;;15.78;100.00;100459.97;5024140;28;20266;-77
2022/09/15 03:22:28;;;;;;;;;;;;;;;16.16;100.00;100460.22;5031554;28;19929;-78
2022/09/15 03:24:55;;;;;;;;;;;;;;;15.96;100.00;100466.09;5033433;28;19983;-79
2022/09/15 03:27:22;;;;;;;;;;;;;;;15.93;100.00;100467.41;5033786;28;20293;-76
2022/09/15 03:29:48;;;;;;;;;;;;;;;16.06;100.00;100460.06;5018438;28;19930;-77
2022/09/15 03:32:15;;;;;;;;;;;;;;;16.00;100.00;100459.19;5002017;28;19988;-80
2022/09/15 03:34:41;;;;;;;;;;;;;;;16.17;100.00;100457.28;4994270;28;20366;-77
2022/09/15 03:37:10;;;;;;;;;;;;;;;16.12;100.00;100462.56;4994451;28;20341;-76
2022/09/15 03:39:37;;;;;;;;;;;;;;;15.79;100.00;100464.28;4994845;28;19926;-78
2022/09/15 03:42:04;;;;;;;;;;;;;;;15.87;100.00;100454.19;4996767;28;19926;-76
2022/09/15 03:44:30;;;;;;;;;;;;;;;15.99;100.00;100465.63;5007369;28;19937;-79
2022/09/15 03:46:57;;;;;;;;;;;;;;;16.14;100.00;100465.81;5006961;28;19933;-79
2022/09/15 03:49:24;;;;;;;;;;;;;;;16.28;100.00;100466.25;5004625;28;20009;-77
2022/09/15 03:51:50;;;;;;;;;;;;;;;16.34;100.00;100464.44;4996231;28;20293;-76
2022/09/15 03:54:19;;;;;;;;;;;;;;;16.38;100.00;100461.00;5013826;28;19929;-78
2022/09/15 03:56:47;;;;;;;;;;;;;;;16.69;100.00;100459.47;5013582;28;20459;-83
2022/09/15 03:59:15;;;;;;;;;;;;;;;16.88;100.00;100459.13;5012224;28;19933;-76
2022/09/15 04:01:42;;;;;;;;;;;;;;;16.68;100.00;100457.06;5018205;28;20604;-80
2022/09/15 04:04:11;;;;;;;;;;;;;;;16.85;100.00;100456.97;5026981;28;19935;-77
2022/09/15 04:06:38;;;;;;;;;;;;;;;16.63;100.00;100459.66;5031775;28;19990;-79
2022/09/15 04:09:18;;;;;;;;;;;;;;;16.98;100.00;100456.56;5031982;28;19929;-78
2022/09/15 04:11:46;;;;;;;;;;;;;;;17.18;100.00;100464.78;5024695;28;20353;-79
2022/09/15 04:14:12;;;;;;;;;;;;;;;17.17;100.00;100459.69;5028789;28;19943;-79
2022/09/15 04:16:39;;;;;;;;;;;;;;;17.34;100.00;100460.38;5031073;28;19925;-82
2022/09/15 04:19:06;;;;;;;;;;;;;;;17.35;100.00;100461.97;5030160;28;19988;-80
2022/09/15 04:21:32;;;;;;;;;;;;;;;17.40;100.00;100472.75;5030276;28;19940;-80
2022/09/15 04:23:59;;;;;;;;;;;;;;;17.80;100.00;100458.00;5028013;28;19925;-80
2022/09/15 04:26:27;;;;;;;;;;;;;;;17.73;100.00;100457.41;5030028;28;19925;-78
2022/09/15 04:28:55;;;;;;;;;;;;;;;17.74;100.00;100461.69;5035674;28;19925;-78
2022/09/15 04:31:22;;;;;;;;;;;;;;;17.87;100.00;100460.47;5027113;28;19929;-82
2022/09/15 04:33:51;;;;;;;;;;;;;;;17.88;100.00;100459.38;5032653;28;19947;-77
2022/09/15 04:36:19;;;;;;;;;;;;;;;18.06;100.00;100464.34;5036281;28;19983;-78
2022/09/15 04:38:46;;;;;;;;;;;;;;;18.56;100.00;100454.03;5036513;28;19925;-80
2022/09/15 04:41:13;;;;;;;;;;;;;;;18.51;100.00;100454.00;5033904;28;20434;-77
2022/09/15 04:43:40;;;;;;;;;;;;;;;18.47;100.00;100467.16;5036048;28;19991;-78
2022/09/15 04:46:08;;;;;;;;;;;;;;;18.56;100.00;100461.28;5036736;28;19936;-77
2022/09/15 04:48:35;;;;;;;;;;;;;;;18.64;100.00;100460.75;5036321;28;19991;-78
2022/09/15 04:51:02;;;;;;;;;;;;;;;18.69;100.00;100461.56;5036876;28;19925;-81
2022/09/15 04:53:28;;;;;;;;;;;;;;;18.90;100.00;100472.41;5034665;28;19925;-80
2022/09/15 04:56:01;;;;;;;;;;;;;;;19.10;100.00;100464.34;5033835;28;19983;-81
2022/09/15 04:58:27;;;;;;;;;;;;;;;19.37;100.00;100465.97;5036211;28;20411;-81
2022/09/15 05:00:54;;;;;;;;;;;;;;;19.58;100.00;100470.25;5036409;28;19937;-81
2022/09/15 05:03:21;;;;;;;;;;;;;;;19.60;100.00;100464.59;5035847;28;20274;-79
2022/09/15 05:05:48;;;;;;;;;;;;;;;19.88;100.00;100464.03;5036170;28;19929;-82
2022/09/15 05:08:15;;;;;;;;;;;;;;;20.21;100.00;100463.63;5036074;28;19987;-76
2022/09/15 05:10:41;;;;;;;;;;;;;;;20.28;100.00;100474.94;5035975;28;19991;-76
2022/09/15 05:13:08;;;;;;;;;;;;;;;20.42;100.00;100465.16;5035607;28;19939;-78
2022/09/15 05:15:34;;;;;;;;;;;;;;;20.56;100.00;100455.41;5036222;28;20002;-77
2022/09/15 05:18:01;;;;;;;;;;;;;;;20.51;100.00;100449.19;5030706;28;19929;-77
2022/09/15 05:20:29;;;;;;;;;;;;;;;20.91;100.00;100452.75;5035747;28;19925;-77
2022/09/15 05:22:55;;;;;;;;;;;;;;;20.74;100.00;100456.66;5036370;28;19947;-77
2022/09/15 05:25:22;;;;;;;;;;;;;;;20.96;100.00;100447.31;5035363;28;19983;-81
2022/09/15 05:27:48;;;;;;;;;;;;;;;21.21;100.00;100449.84;5035648;28;19932;-81
2022/09/15 05:30:16;;;;;;;;;;;;;;;21.46;100.00;100448.81;5035935;28;19925;-82
2022/09/15 05:32:42;;;;;;;;;;;;;;;21.84;100.00;100446.25;5035687;28;19925;-79
2022/09/15 05:35:09;;;;;;;;;;;;;;;22.11;100.00;100442.97;5034797;28;19925;-78
2022/09/15 05:37:37;;;;;;;;;;;;;;;22.17;100.00;100441.03;5033693;28;20340;-79
2022/09/15 05:40:05;;;;;;;;;;;;;;;22.55;100.00;100441.09;5032439;28;19983;-77
2022/09/15 05:42:32;;;;;;;;;;;;;;;23.07;100.00;100445.44;5035074;28;20443;-76
2022/09/15 05:44:58;;;;;;;;;;;;;;;23.38;100.00;100444.13;5033488;28;19925;-78
2022/09/15 05:47:25;;;;;;;;;;;;;;;23.81;100.00;100439.28;5027306;28;19992;-79
2022/09/15 05:49:54;;;;;;;;;;;;;;;23.96;100.00;100444.44;5028914;28;20352;-79
2022/09/15 05:52:21;;;;;;;;;;;;;;;24.28;100.00;100445.38;5028060;28;19929;-79
2022/09/15 05:54:49;;;;;;;;;;;;;;;24.41;94.84;100441.81;5034240;28;19925;-77
2022/09/15 05:57:15;;;;;;;;;;;;;;;24.48;94.69;100440.63;5035409;28;20380;-81
2022/09/15 05:59:42;;;;;;;;;;;;;;;24.53;90.77;100444.03;5035050;28;19926;-80
2022/09/15 06:02:09;;;;;;;;;;;;;;;24.44;92.91;100446.69;5034599;28;20269;-81
2022/09/15 06:04:36;;;;;;;;;;;;;;;24.66;92.20;100440.50;5035487;28;19925;-80
2022/09/15 06:07:02;;;;;;;;;;;;;;;24.72;93.75;100440.34;5034762;28;20003;-79
2022/09/15 06:09:29;;;;;;;;;;;;;;;24.74;91.65;100444.38;5034551;28;19925;-79
2022/09/15 06:11:56;;;;;;;;;;;;;;;24.85;86.55;100445.75;5033953;28;20336;-80
2022/09/15 06:14:23;;;;;;;;;;;;;;;24.89;82.11;100422.28;5026172;28;20373;-80
2022/09/15 06:16:50;;;;;;;;;;;;;;;24.81;90.84;100436.63;5031944;28;19990;-77
2022/09/15 06:19:16;;;;;;;;;;;;;;;24.84;89.83;100437.91;5014183;28;19929;-78
2022/09/15 06:21:43;;;;;;;;;;;;;;;24.90;90.63;100432.06;5010650;28;19925;-80
2022/09/15 06:24:11;;;;;;;;;;;;;;;25.02;88.99;100430.69;5014681;28;19930;-80
2022/09/15 06:26:38;;;;;;;;;;;;;;;25.12;88.76;100419.56;5017997;28;20370;-77
2022/09/15 06:29:06;;;;;;;;;;;;;;;25.22;82.48;100423.97;5028196;28;19979;-80
2022/09/15 06:31:33;;;;;;;;;;;;;;;25.38;80.04;100421.66;5034768;28;19983;-80
2022/09/15 06:34:00;;;;;;;;;;;;;;;25.63;80.63;100426.41;5025808;28;19926;-80
2022/09/15 06:36:28;;;;;;;;;;;;;;;25.89;72.86;100418.34;5024351;28;19932;-79
2022/09/15 06:38:55;;;;;;;;;;;;;;;25.89;78.11;100417.56;5026144;28;20343;-77
2022/09/15 06:41:23;;;;;;;;;;;;;;;26.13;72.43;100417.94;5034579;28;19987;-80
2022/09/15 06:43:50;;;;;;;;;;;;;;;25.92;78.63;100419.66;5034076;28;19935;-80
2022/09/15 06:46:18;;;;;;;;;;;;;;;26.16;71.69;100408.34;5033505;28;20327;-82
2022/09/15 06:48:45;;;;;;;;;;;;;;;26.46;69.95;100423.75;5025852;28;19994;-83
2022/09/15 06:51:12;;;;;;;;;;;;;;;26.53;67.82;100423.28;5033705;28;20346;-77
2022/09/15 06:53:39;;;;;;;;;;;;;;;26.90;62.82;100421.03;5034573;28;20016;-80
2022/09/15 06:56:07;;;;;;;;;;;;;;;27.01;66.17;100427.75;5033491;28;20348;-76
2022/09/15 06:58:34;;;;;;;;;;;;;;;26.63;69.57;100427.63;5033944;28;19931;-77
2022/09/15 07:01:02;;;;;;;;;;;;;;;25.94;76.77;100426.38;5034208;28;19991;-78
2022/09/15 07:03:30;;;;;;;;;;;;;;;25.43;84.95;100419.59;5030348;28;20361;-77
2022/09/15 07:05:57;;;;;;;;;;;;;;;25.22;87.70;100418.53;5019094;28;19999;-77
2022/09/15 07:08:23;;;;;;;;;;;;;;;25.52;77.83;100409.56;5034108;28;19979;-76
2022/09/15 07:10:50;;;;;;;;;;;;;;;26.73;67.80;100411.75;5033549;28;20415;-78
2022/09/15 07:13:16;;;;;;;;;;;;;;;27.04;63.30;100409.94;5019115;28;20016;-79
2022/09/15 07:15:49;;;;;;;;;;;;;;;27.09;65.11;100396.94;5028290;28;19983;-77
2022/09/15 07:18:16;;;;;;;;;;;;;;;27.01;66.75;100410.59;5019341;28;19929;-78
2022/09/15 07:20:44;;;;;;;;;;;;;;;26.93;63.77;100399.41;5018721;28;19925;-78
2022/09/15 07:23:11;;;;;;;;;;;;;;;27.44;62.51;100398.78;5023073;28;20290;-76
2022/09/15 07:25:37;;;;;;;;;;;;;;;27.91;58.35;100394.09;5029847;28;19929;-80
2022/09/15 07:28:04;;;;;;;;;;;;;;;27.84;62.22;100393.84;5032207;28;19925;-81
2022/09/15 07:30:30;;;;;;;;;;;;;;;28.11;59.77;100397.19;5033741;28;19925;-77
2022/09/15 07:32:57;;;;;;;;;;;;;;;27.28;63.34;100399.31;5033308;28;19926;-83
2022/09/15 07:35:23;;;;;;;;;;;;;;;27.68;58.78;100384.56;5033120;28;19925;-80
2022/09/15 07:37:51;;;;;;;;;;;;;;;27.68;59.94;100404.44;5033043;28;19933;-77
2022/09/15 07:40:17;;;;;;;;;;;;;;;27.62;57.12;100401.09;5032976;28;20373;-77
2022/09/15 07:42:44;;;;;;;;;;;;;;;27.99;50.72;100395.97;5018110;28;20436;-78
2022/09/15 07:45:11;;;;;;;;;;;;;;;27.83;55.46;100395.72;5021305;28;19929;-79
2022/09/15 07:47:38;;;;;;;;;;;;;;;28.45;52.45;100407.88;5014631;28;19930;-77
2022/09/15 07:50:05;;;;;;;;;;;;;;;28.47;54.91;100407.53;5027712;28;19999;-78
2022/09/15 07:52:35;;;;;;;;;;;;;;;28.94;51.28;100407.28;5019842;28;20373;-79
2022/09/15 07:55:03;;;;;;;;;;;;;;;28.48;54.77;100409.16;5022520;28;19959;-78
2022/09/15 07:57:29;;;;;;;;;;;;;;;28.61;52.95;100410.00;5021949;28;19929;-80
2022/09/15 07:59:57;;;;;;;;;;;;;;;28.43;52.36;100410.13;5020242;28;19926;-77
2022/09/15 08:02:24;;;;;;;;;;;;;;;29.17;51.09;100422.19;5027053;28;20024;-77
2022/09/15 08:04:51;;;;;;;;;;;;;;;29.45;49.46;100419.59;5023335;28;19929;-80
2022/09/15 08:07:18;;;;;;;;;;;;;;;29.20;49.49;100416.03;5018829;28;19925;-79
2022/09/15 08:09:44;;;;;;;;;;;;;;;29.07;49.92;100421.81;5017947;28;19925;-80
2022/09/15 08:12:12;;;;;;;;;;;;;;;28.94;51.19;100426.41;5012163;28;19983;-78
2022/09/15 08:14:39;;;;;;;;;;;;;;;29.21;49.24;100427.78;5020402;28;19926;-77
2022/09/15 08:17:05;;;;;;;;;;;;;;;29.11;47.52;100428.19;5022211;28;19992;-82
2022/09/15 08:19:33;;;;;;;;;;;;;;;29.94;47.69;100427.06;5013571;28;20589;-77
2022/09/15 08:22:00;;;;;;;;;;;;;;;29.28;49.12;100428.00;5016206;28;19996;-78
2022/09/15 08:24:27;;;;;;;;;;;;;;;29.83;47.75;100425.91;5017352;28;19934;-79
2022/09/15 08:26:54;;;;;;;;;;;;;;;29.03;49.31;100429.09;5020185;28;19929;-78
2022/09/15 08:29:22;;;;;;;;;;;;;;;26.09;61.80;100422.44;5020917;28;19933;-80
2022/09/15 08:31:49;;;;;;;;;;;;;;;26.19;68.75;100433.00;5031308;28;19987;-77
2022/09/15 08:34:16;;;;;;;;;;;;;;;26.00;72.05;100432.50;5031574;28;19996;-76
2022/09/15 08:36:43;;;;;;;;;;;;;;;26.41;69.08;100436.69;5032155;28;19933;-78
2022/09/15 08:39:09;;;;;;;;;;;;;;;26.66;68.54;100437.88;5036654;28;19925;-76
2022/09/15 08:41:37;;;;;;;;;;;;;;;26.68;67.81;100433.69;5019541;28;19926;-77
2022/09/15 08:44:08;;;;;;;;;;;;;;;29.51;49.56;100425.66;5020158;28;19995;-76
2022/09/15 08:46:39;;;;;;;;;;;;;;;30.35;45.70;100419.72;5018021;28;19951;-79
2022/09/15 08:49:09;;;;;;;;;;;;;;;30.23;44.05;100414.25;5032326;28;19986;-79
2022/09/15 08:51:39;;;;;;;;;;;;;;;30.09;46.34;100415.38;5028739;28;20352;-79
2022/09/15 08:54:10;;;;;;;;;;;;;;;29.02;50.67;100400.97;5012342;28;19929;-77
2022/09/15 08:56:37;;;;;;;;;;;;;;;30.85;43.65;100407.44;5019114;28;20445;-80
2022/09/15 08:59:03;;;;;;;;;;;;;;;30.21;47.44;100395.44;5009895;28;20003;-79
2022/09/15 09:01:52;;;;;;;;;;;;;;;30.29;41.64;100393.72;5007135;28;20001;-79
2022/09/15 09:04:30;;;;;;;;;;;;;;;31.45;40.85;100390.97;5013349;28;20483;-80
2022/09/15 09:07:04;;;;;;;;;;;;;;;31.19;45.91;100395.00;5017160;28;19933;-79
2022/09/15 09:09:34;;;;;;;;;;;;;;;31.13;42.89;100388.19;5016517;28;19930;-78
2022/09/15 09:12:20;;;;;;;;;;;;;;;30.63;45.25;100397.81;5006768;28;20405;-79
2022/09/15 09:14:56;;;;;;;;;;;;;;;30.19;45.94;100385.94;5008247;28;20271;-78
2022/09/15 09:17:31;;;;;;;;;;;;;;;31.17;41.68;100382.81;5014932;28;19926;-79
2022/09/15 09:20:19;;;;;;;;;;;;;;;31.71;42.60;100377.50;5025937;28;20008;-78
2022/09/15 09:22:48;;;;;;;;;;;;;;;31.95;40.52;100375.69;5012250;28;19929;-78
2022/09/15 09:25:17;;;;;;;;;;;;;;;31.87;40.10;100371.16;5014869;28;19965;-82
2022/09/15 09:27:44;;;;;;;;;;;;;;;31.64;40.44;100366.34;5014934;28;19925;-80
2022/09/15 09:30:14;;;;;;;;;;;;;;;32.35;38.55;100363.59;5014233;28;20543;-77
2022/09/15 09:32:45;;;;;;;;;;;;;;;31.11;42.32;100365.03;5011675;28;19926;-82
2022/09/15 09:35:20;;;;;;;;;;;;;;;32.22;42.77;100359.38;5010558;28;19925;-82
2022/09/15 09:37:47;;;;;;;;;;;;;;;30.36;44.76;100358.31;5024008;28;19925;-79
2022/09/15 09:40:14;;;;;;;;;;;;;;;31.14;42.47;100359.63;5021310;28;20366;-79
2022/09/15 09:42:41;;;;;;;;;;;;;;;30.65;44.33;100364.56;5021679;28;20274;-79
2022/09/15 09:45:11;;;;;;;;;;;;;;;32.38;40.75;100357.38;5020577;28;19929;-80
2022/09/15 09:47:39;;;;;;;;;;;;;;;30.98;41.89;100356.06;5023740;28;19926;-80
2022/09/15 09:50:26;;;;;;;;;;;;;;;31.55;41.79;100353.97;5031529;28;19933;-77
2022/09/15 09:52:54;;;;;;;;;;;;;;;32.71;38.63;100345.84;5023612;28;19933;-78
2022/09/15 09:55:23;;;;;;;;;;;;;;;33.06;37.02;100350.41;5019808;28;19999;-79
2022/09/15 09:57:49;;;;;;;;;;;;;;;32.22;38.69;100346.44;5020159;28;19991;-79
2022/09/15 10:00:30;;;;;;;;;;;;;;;32.93;37.20;100344.28;5025256;28;19925;-80
2022/09/15 10:02:57;;;;;;;;;;;;;;;33.33;36.25;100343.00;5012977;28;19969;-82
2022/09/15 10:05:23;;;;;;;;;;;;;;;32.99;36.37;100350.28;5032755;28;19925;-79
2022/09/15 10:07:55;;;;;;;;;;;;;;;32.76;36.92;100344.75;5030779;28;20336;-79
2022/09/15 10:10:27;;;;;;;;;;;;;;;31.47;40.35;100350.28;5034650;28;19925;-81
2022/09/15 10:12:55;;;;;;;;;;;;;;;31.79;39.66;100352.94;5034546;28;19961;-79
2022/09/15 10:15:23;;;;;;;;;;;;;;;31.34;41.52;100346.81;5031629;28;19925;-75
2022/09/15 10:17:50;;;;;;;;;;;;;;;31.98;39.16;100335.72;5015812;28;20337;-78
2022/09/15 10:20:22;;;;;;;;;;;;;;;32.12;38.75;100331.31;5017707;28;19987;-78
2022/09/15 10:22:52;;;;;;;;;;;;;;;32.76;38.93;100331.00;5013369;28;19929;-76
2022/09/15 10:25:33;;;;;;;;;;;;;;;33.25;35.92;100328.31;5034340;28;20369;-80
2022/09/15 10:28:11;;;;;;;;;;;;;;;33.00;37.34;100332.63;5025370;28;20612;-80
2022/09/15 10:30:41;;;;;;;;;;;;;;;32.19;38.74;100318.88;5026468;28;20003;-78
2022/09/15 10:33:18;;;;;;;;;;;;;;;32.76;37.34;100320.00;5029947;28;19925;-82
2022/09/15 10:35:47;;;;;;;;;;;;;;;29.63;44.60;100318.19;5029821;28;19933;-80
2022/09/15 10:38:16;;;;;;;;;;;;;;;31.12;41.43;100309.03;5033938;28;19933;-77
2022/09/15 10:40:46;;;;;;;;;;;;;;;33.08;34.70;100317.03;5032514;28;19932;-77
2022/09/15 10:43:24;;;;;;;;;;;;;;;32.66;35.45;100315.91;5014907;28;19925;-79
2022/09/15 10:45:55;;;;;;;;;;;;;;;32.39;36.58;100321.25;5020113;28;20325;-77
2022/09/15 10:48:40;;;;;;;;;;;;;;;32.97;35.21;100309.38;5034421;28;19979;-82
2022/09/15 10:51:14;;;;;;;;;;;;;;;33.16;34.53;100307.72;5026876;28;19925;-79
2022/09/15 10:53:55;;;;;;;;;;;;;;;32.94;36.64;100307.34;5033754;28;19999;-78
2022/09/15 10:56:27;;;;;;;;;;;;;;;33.59;33.35;100300.94;5033761;28;19960;-80
2022/09/15 10:59:01;;;;;;;;;;;;;;;32.09;37.91;100298.28;5027187;28;19925;-78
2022/09/15 11:01:52;;;;;;;;;;;;;;;32.71;34.95;100303.78;5024129;28;19925;-79
2022/09/15 11:04:33;;;;;;;;;;;;;;;33.84;32.26;100304.03;5026353;28;19925;-78
2022/09/15 11:07:05;;;;;;;;;;;;;;;33.83;32.24;100307.13;5016656;28;19929;-84
2022/09/15 11:09:38;;;;;;;;;;;;;;;31.46;38.52;100297.31;5020127;28;19925;-79
2022/09/15 11:12:16;;;;;;;;;;;;;;;34.04;33.09;100301.13;5012268;28;19973;-80
2022/09/15 11:14:50;;;;;;;;;;;;;;;33.22;35.36;100296.03;5017903;28;20388;-78
2022/09/15 11:17:26;;;;;;;;;;;;;;;34.07;32.04;100294.88;5018548;28;20361;-82
2022/09/15 11:20:18;;;;;;;;;;;;;;;32.94;34.74;100298.31;5028400;28;20326;-78
2022/09/15 11:22:50;;;;;;;;;;;;;;;34.28;32.09;100289.59;5005719;28;19960;-80
2022/09/15 11:25:26;;;;;;;;;;;;;;;33.41;34.55;100292.41;5013689;28;19925;-80
2022/09/15 11:27:59;;;;;;;;;;;;;;;33.51;32.05;100285.50;5010020;28;19933;-76
2022/09/15 11:30:34;;;;;;;;;;;;;;;33.21;34.23;100288.94;5013752;28;19929;-75
2022/09/15 11:33:04;;;;;;;;;;;;;;;33.90;33.96;100286.00;5009078;28;19926;-79
2022/09/15 11:35:50;;;;;;;;;;;;;;;;;;;;;
2022/09/15 11:38:29;;;;;;;;;;;;;;;32.83;33.86;100281.63;5017418;28;19926;-80
2022/09/15 11:41:06;;;;;;;;;;;;;;;32.45;33.61;100277.03;5007632;28;19930;-80
2022/09/15 11:43:44;;;;;;;;;;;;;;;33.03;33.14;100283.16;5015855;28;19991;-77
2022/09/15 11:46:15;;;;;;;;;;;;;;;32.50;35.19;100282.22;5032650;28;19983;-81
2022/09/15 11:48:46;;;;;;;;;;;;;;;32.34;34.13;100280.34;5025420;28;19955;-77
2022/09/15 11:51:17;;;;;;;;;;;;;;;31.02;38.66;100280.19;5033610;28;19925;-80
2022/09/15 11:53:47;;;;;;;;;;;;;;;31.89;37.02;100284.56;5033332;28;19933;-81
2022/09/15 11:56:25;;;;;;;;;;;;;;;30.38;40.75;100278.50;5025520;28;20373;-77
2022/09/15 11:59:02;;;;;;;;;;;;;;;31.95;36.93;100274.06;5033253;28;19939;-79
2022/09/15 12:01:32;;;;;;;;;;;;;;;32.30;34.01;100284.97;5032752;28;19929;-80
2022/09/15 12:04:03;;;;;;;;;;;;;;;32.44;35.67;100280.91;5032908;28;19936;-79
2022/09/15 12:06:32;;;;;;;;;;;;;;;32.10;36.67;100275.94;5031287;28;19999;-79
2022/09/15 12:09:02;;;;;;;;;;;;;;;31.90;36.40;100268.88;5024664;28;19933;-78
2022/09/15 12:11:34;;;;;;;;;;;;;;;32.06;37.40;100268.81;5033788;28;19925;-76
2022/09/15 12:14:07;;;;;;;;;;;;;;;33.59;34.01;100269.84;5032949;28;19929;-78
2022/09/15 12:16:38;;;;;;;;;;;;;;;33.52;34.00;100265.84;5029876;28;20382;-81
2022/09/15 12:19:13;;;;;;;;;;;;;;;33.23;34.49;100266.59;5025133;28;19929;-79
2022/09/15 12:21:48;;;;;;;;;;;;;;;31.09;39.29;100263.91;5017940;28;19937;-76
2022/09/15 12:24:17;;;;;;;;;;;;;;;32.31;36.58;100261.84;5024699;28;19932;-79
2022/09/15 12:26:49;;;;;;;;;;;;;;;32.66;36.15;100254.63;5029148;28;19925;-79
2022/09/15 12:29:40;;;;;;;;;;;;;;;33.51;32.56;100253.25;5033189;28;19979;-77
2022/09/15 12:32:20;;;;;;;;;;;;;;;33.42;34.54;100249.94;5032708;28;19933;-75
2022/09/15 12:35:07;;;;;;;;;;;;;;;34.43;31.24;100241.75;5032930;28;19990;-79
2022/09/15 12:37:46;;;;;;;;;;;;;;;35.00;31.30;100241.44;5024752;28;19929;-78
2022/09/15 12:40:33;;;;;;;;;;;;;;;34.67;32.59;100239.59;5025947;28;19925;-81
2022/09/15 12:43:01;;;;;;;;;;;;;;;34.99;30.55;100245.38;5032501;28;19940;-79
2022/09/15 12:45:31;;;;;;;;;;;;;;;34.05;34.80;100245.69;5036215;28;19929;-80
2022/09/15 12:48:08;;;;;;;;;;;;;;;32.95;33.98;100251.22;5036033;28;19929;-78
2022/09/15 12:50:36;;;;;;;;;;;;;;;32.69;33.39;100242.91;5036102;28;19925;-79
2022/09/15 12:53:05;;;;;;;;;;;;;;;33.15;33.06;100251.91;5036418;28;19998;-77
2022/09/15 12:55:34;;;;;;;;;;;;;;;33.05;35.31;100252.56;5036228;28;19936;-79